Time;durP1;ratioP1;P1;durP2;ratioP2;P2;SDS_P1;SDS_P2;PMS_P1;PMS_P2;Temp;Humidity;BMP_temperature;BMP_pressure;BME280_temperature;BME280_humidity;BME280_pressure;Samples;Min_cycle;Max_cycle;Signal;HPM_P1;HPM_P2
2022/10/03 00:02:04;;;;;;;12.55;2.15;;;11.50;99.90;;;;;;5032606;28;20026;-74
2022/10/03 00:05:09;;;;;;;15.15;2.25;;;11.50;99.90;;;;;;5032118;28;20025;-75
2022/10/03 00:08:15;;;;;;;18.48;2.45;;;11.40;99.90;;;;;;5015985;28;20105;-72
2022/10/03 00:11:05;;;;;;;11.13;2.03;;;11.40;99.90;;;;;;5031220;28;20120;-77
2022/10/03 00:14:02;;;;;;;15.77;2.70;;;11.40;99.90;;;;;;5037761;28;20058;-74
2022/10/03 00:17:01;;;;;;;14.98;2.90;;;11.30;99.90;;;;;;4974111;28;20037;-76
2022/10/03 00:19:27;;;;;;;16.33;2.40;;;11.30;99.90;;;;;;5032354;28;20041;-76
2022/10/03 00:22:11;;;;;;;12.38;2.22;;;11.30;99.90;;;;;;5032055;28;20419;-75
2022/10/03 00:24:50;;;;;;;13.77;2.38;;;11.30;99.90;;;;;;5028172;28;20030;-73
2022/10/03 00:27:55;;;;;;;12.52;2.35;;;11.30;99.90;;;;;;5032078;28;20029;-74
2022/10/03 00:30:24;;;;;;;8.83;1.90;;;11.30;99.90;;;;;;5038741;28;20050;-75
2022/10/03 00:32:52;;;;;;;9.80;1.73;;;11.20;99.90;;;;;;5030865;28;20029;-77
2022/10/03 00:35:33;;;;;;;11.45;2.40;;;11.30;99.90;;;;;;5031864;28;20033;-76
2022/10/03 00:38:08;;;;;;;11.82;2.58;;;11.20;99.90;;;;;;5037250;28;20027;-75
2022/10/03 00:40:54;;;;;;;9.30;2.40;;;11.20;99.90;;;;;;5037502;28;20026;-78
2022/10/03 00:43:42;;;;;;;16.90;2.35;;;11.20;99.90;;;;;;5032137;28;20025;-76
2022/10/03 00:46:43;;;;;;;17.23;2.42;;;11.20;99.90;;;;;;5031727;28;20018;-76
2022/10/03 00:49:31;;;;;;;16.58;2.25;;;11.10;99.90;;;;;;4979995;28;20077;-74
2022/10/03 00:52:19;;;;;;;14.48;2.25;;;11.10;99.90;;;;;;5027351;28;20077;-73
2022/10/03 00:55:13;;;;;;;10.65;2.38;;;11.10;99.90;;;;;;5037786;28;20453;-74
2022/10/03 00:57:41;;;;;;;7.68;1.90;;;11.10;99.90;;;;;;5031859;28;20064;-74
2022/10/03 01:00:28;;;;;;;8.73;2.22;;;11.10;99.90;;;;;;5030495;28;20021;-73
2022/10/03 01:03:04;;;;;;;13.10;2.22;;;11.10;99.90;;;;;;5031931;28;20022;-77
2022/10/03 01:06:00;;;;;;;14.80;2.35;;;11.10;99.90;;;;;;5028728;28;20018;-74
2022/10/03 01:08:37;;;;;;;17.02;2.13;;;11.20;99.90;;;;;;5029399;28;20037;-75
2022/10/03 01:11:03;;;;;;;17.50;2.15;;;11.20;99.90;;;;;;5031139;28;20053;-74
2022/10/03 01:13:50;;;;;;;8.75;2.22;;;11.20;99.90;;;;;;5031510;28;20033;-76
2022/10/03 01:16:38;;;;;;;13.43;2.03;;;11.20;99.90;;;;;;5036951;28;20053;-75
2022/10/03 01:19:03;;;;;;;10.13;2.33;;;11.20;99.90;;;;;;5032080;28;20042;-73
2022/10/03 01:21:48;;;;;;;15.73;2.25;;;11.20;99.90;;;;;;5037598;28;20076;-76
2022/10/03 01:24:49;;;;;;;17.38;2.65;;;11.20;99.90;;;;;;5035834;28;20028;-70
2022/10/03 01:27:32;;;;;;;24.77;1.95;;;11.20;99.90;;;;;;5014146;28;20037;-73
2022/10/03 01:30:21;;;;;;;11.73;2.28;;;11.20;99.90;;;;;;5035170;28;20025;-73
2022/10/03 01:32:54;;;;;;;11.10;2.08;;;11.20;99.90;;;;;;5034600;28;20053;-72
2022/10/03 01:35:49;;;;;;;13.18;1.92;;;11.20;99.90;;;;;;5034316;28;20032;-72
2022/10/03 01:38:46;;;;;;;15.23;2.33;;;11.20;99.90;;;;;;5035276;28;20026;-75
2022/10/03 01:41:38;;;;;;;9.23;1.83;;;11.30;99.90;;;;;;5033752;28;20523;-73
2022/10/03 01:44:17;;;;;;;15.55;2.38;;;11.20;99.90;;;;;;5035174;28;20042;-74
2022/10/03 01:47:10;;;;;;;9.48;2.15;;;11.30;99.90;;;;;;5033963;28;20030;-74
2022/10/03 01:49:42;;;;;;;15.30;2.10;;;11.30;99.90;;;;;;5028568;28;20046;-75
2022/10/03 01:52:19;;;;;;;6.38;1.70;;;11.20;99.90;;;;;;5034457;28;20037;-73
2022/10/03 01:55:08;;;;;;;7.20;1.88;;;11.30;99.90;;;;;;5033811;28;20014;-74
2022/10/03 01:57:50;;;;;;;10.90;1.77;;;11.30;99.90;;;;;;5040761;28;20030;-74
2022/10/03 02:00:25;;;;;;;10.32;1.75;;;11.30;99.90;;;;;;5034354;28;20025;-74
2022/10/03 02:03:19;;;;;;;19.00;1.77;;;11.30;99.90;;;;;;5033826;28;20077;-74
2022/10/03 02:06:05;;;;;;;18.63;2.38;;;11.20;99.90;;;;;;5034922;28;20033;-76
2022/10/03 02:09:02;;;;;;;9.55;2.05;;;11.20;99.90;;;;;;5033425;28;20053;-73
2022/10/03 02:11:50;;;;;;;7.65;1.80;;;11.20;99.90;;;;;;5034123;28;20026;-73
2022/10/03 02:14:29;;;;;;;13.65;1.80;;;11.20;99.90;;;;;;5033850;28;20057;-74
2022/10/03 02:17:00;;;;;;;5.95;1.38;;;11.20;99.90;;;;;;5034657;28;20104;-75
2022/10/03 02:19:32;;;;;;;8.40;1.90;;;11.20;99.90;;;;;;5034279;28;20112;-76
2022/10/03 02:21:59;;;;;;;10.90;1.58;;;11.30;99.90;;;;;;5034302;28;20040;-75
2022/10/03 02:24:31;;;;;;;9.98;2.17;;;11.20;99.90;;;;;;5015880;28;20029;-76
2022/10/03 02:27:06;;;;;;;15.93;1.73;;;11.20;99.90;;;;;;5033964;28;20524;-76
2022/10/03 02:29:53;;;;;;;11.52;2.08;;;11.30;99.90;;;;;;5048611;28;20116;-76
2022/10/03 02:32:57;;;;;;;8.65;2.13;;;11.20;99.90;;;;;;5033171;28;20073;-78
2022/10/03 02:35:50;;;;;;;11.10;1.48;;;11.30;99.90;;;;;;5033947;28;20029;-75
2022/10/03 02:38:53;;;;;;;12.23;2.50;;;11.30;99.90;;;;;;5048137;28;20044;-72
2022/10/03 02:41:31;;;;;;;8.05;2.10;;;11.30;99.90;;;;;;5040692;28;20033;-73
2022/10/03 02:44:16;;;;;;;6.07;1.83;;;11.30;99.90;;;;;;5033965;28;20033;-75
2022/10/03 02:47:33;;;;;;;9.13;1.98;;;11.30;99.90;;;;;;5032793;28;20572;-74
2022/10/03 02:50:21;;;;;;;11.07;2.25;;;11.20;99.90;;;;;;5038722;28;20025;-75
2022/10/03 02:53:09;;;;;;;14.60;2.17;;;11.30;99.90;;;;;;5033049;28;20034;-74
2022/10/03 02:56:17;;;;;;;10.02;2.00;;;11.20;99.90;;;;;;5033110;28;20383;-72
2022/10/03 02:59:07;;;;;;;6.75;1.77;;;11.20;99.90;;;;;;5033399;28;20037;-75
2022/10/03 03:01:48;;;;;;;9.05;1.92;;;11.20;99.90;;;;;;5033521;28;20131;-73
2022/10/03 03:04:39;;;;;;;10.70;2.00;;;11.20;99.90;;;;;;5032233;28;20029;-75
2022/10/03 03:07:26;;;;;;;4.30;1.25;;;11.20;99.90;;;;;;5047664;28;20078;-74
2022/10/03 03:10:01;;;;;;;11.38;1.55;;;11.20;99.90;;;;;;5033080;28;20036;-72
2022/10/03 03:12:58;;;;;;;10.18;1.48;;;11.20;99.90;;;;;;5047814;28;20155;-73
2022/10/03 03:16:19;;;;;;;10.60;1.65;;;11.10;99.90;;;;;;5033076;28;20037;-75
2022/10/03 03:18:52;;;;;;;11.68;1.80;;;11.10;99.90;;;;;;4980671;28;20047;-72
2022/10/03 03:21:47;;;;;;;15.10;2.10;;;11.10;99.90;;;;;;5031672;28;20053;-75
2022/10/03 03:24:35;;;;;;;4.43;1.27;;;11.10;99.90;;;;;;5012020;28;20046;-72
2022/10/03 03:27:14;;;;;;;10.52;2.15;;;11.00;99.90;;;;;;5030606;28;20033;-74
2022/10/03 03:30:05;;;;;;;9.05;1.98;;;11.00;99.90;;;;;;5031148;28;20034;-73
2022/10/03 03:33:00;;;;;;;7.03;1.60;;;11.00;99.90;;;;;;5032356;28;20044;-76
2022/10/03 03:35:28;;;;;;;;;;;11.00;99.90;;;;;;5032850;28;20022;-76
2022/10/03 03:37:56;;;;;;;10.65;2.10;;;10.90;99.90;;;;;;5032478;28;19906;-77
2022/10/03 03:40:38;;;;;;;7.72;1.92;;;10.90;99.90;;;;;;5032401;28;20029;-76
2022/10/03 03:43:23;;;;;;;6.60;1.63;;;10.90;99.90;;;;;;5030626;28;20037;-73
2022/10/03 03:46:12;;;;;;;13.40;1.80;;;10.90;99.90;;;;;;5032755;28;20565;-74
2022/10/03 03:48:58;;;;;;;7.85;1.58;;;10.90;99.90;;;;;;5032010;28;20052;-76
2022/10/03 03:51:37;;;;;;;9.38;1.75;;;10.90;99.90;;;;;;5030972;28;20034;-72
2022/10/03 03:54:12;;;;;;;12.02;1.92;;;10.90;99.90;;;;;;5030349;28;20034;-73
2022/10/03 03:56:52;;;;;;;9.93;1.70;;;10.90;99.90;;;;;;5032230;28;20033;-77
2022/10/03 03:59:46;;;;;;;19.85;1.80;;;10.90;99.90;;;;;;5039097;28;20100;-73
2022/10/03 04:02:21;;;;;;;11.50;1.55;;;10.90;99.90;;;;;;5032151;28;20036;-73
2022/10/03 04:05:08;;;;;;;8.63;2.17;;;10.90;99.90;;;;;;5031447;28;20030;-77
2022/10/03 04:08:01;;;;;;;9.40;1.50;;;11.00;99.90;;;;;;5032468;28;20086;-73
2022/10/03 04:10:42;;;;;;;13.18;2.08;;;10.90;99.90;;;;;;5038448;28;20025;-75
2022/10/03 04:13:17;;;;;;;10.35;1.92;;;10.90;99.90;;;;;;5031452;28;20091;-75
2022/10/03 04:16:15;;;;;;;9.50;1.60;;;10.90;99.90;;;;;;5031422;28;20022;-76
2022/10/03 04:19:23;;;;;;;9.35;1.70;;;10.90;99.90;;;;;;5030273;28;20703;-76
2022/10/03 04:22:10;;;;;;;11.27;1.85;;;10.90;99.90;;;;;;4969748;28;20574;-74
2022/10/03 04:24:48;;;;;;;10.20;1.58;;;10.90;99.90;;;;;;5031692;28;20112;-73
2022/10/03 04:27:36;;;;;;;7.18;1.80;;;10.90;99.90;;;;;;5029940;28;20044;-73
2022/10/03 04:30:19;;;;;;;15.23;1.98;;;10.80;99.90;;;;;;5031481;28;20025;-75
2022/10/03 04:33:16;;;;;;;14.88;2.25;;;10.80;99.90;;;;;;5046859;28;20037;-75
2022/10/03 04:35:56;;;;;;;15.68;3.10;;;10.80;99.90;;;;;;5032305;28;20042;-72
2022/10/03 04:38:41;;;;;;;16.38;2.00;;;10.80;99.90;;;;;;5031988;28;20453;-76
2022/10/03 04:41:16;;;;;;;16.15;2.35;;;10.80;99.90;;;;;;5032071;28;20017;-73
2022/10/03 04:43:52;;;;;;;16.63;1.77;;;10.80;99.90;;;;;;5037005;28;20029;-73
2022/10/03 04:46:53;;;;;;;12.60;2.00;;;10.80;99.90;;;;;;5032308;28;20085;-74
2022/10/03 04:49:43;;;;;;;14.68;2.25;;;10.80;99.90;;;;;;5031549;28;20481;-71
2022/10/03 04:52:26;;;;;;;8.73;2.20;;;10.80;99.90;;;;;;5031253;28;20037;-75
2022/10/03 04:55:05;;;;;;;8.02;2.10;;;10.80;99.90;;;;;;5034329;28;20026;-74
2022/10/03 04:57:46;;;;;;;8.77;1.98;;;10.80;99.90;;;;;;5034948;28;20029;-75
2022/10/03 05:00:27;;;;;;;10.63;2.20;;;10.70;99.90;;;;;;5033538;28;20029;-74
2022/10/03 05:03:27;;;;;;;11.48;2.15;;;10.80;99.90;;;;;;5034181;28;20045;-75
2022/10/03 05:05:58;;;;;;;7.18;1.73;;;10.70;99.90;;;;;;5035344;28;20037;-74
2022/10/03 05:08:39;;;;;;;13.68;2.28;;;10.70;99.90;;;;;;5035442;28;20183;-74
2022/10/03 05:11:11;;;;;;;7.43;2.10;;;10.80;99.90;;;;;;5039037;28;20053;-73
2022/10/03 05:13:54;;;;;;;14.43;2.15;;;10.80;99.90;;;;;;5033819;28;21189;-74
2022/10/03 05:16:40;;;;;;;21.08;3.03;;;10.70;99.90;;;;;;5035287;28;20029;-76
2022/10/03 05:19:32;;;;;;;11.68;2.60;;;10.70;99.90;;;;;;5034637;28;20044;-72
2022/10/03 05:22:03;;;;;;;6.82;1.92;;;10.70;99.90;;;;;;5050054;28;20045;-74
2022/10/03 05:24:56;;;;;;;10.13;2.53;;;10.70;99.90;;;;;;5035197;28;20029;-72
2022/10/03 05:27:34;;;;;;;19.25;2.70;;;10.70;99.90;;;;;;5035427;28;20049;-74
2022/10/03 05:30:12;;;;;;;15.70;2.70;;;10.70;99.90;;;;;;5035291;28;20045;-72
2022/10/03 05:32:57;;;;;;;12.93;2.53;;;10.60;99.90;;;;;;5034496;28;20038;-72
2022/10/03 05:35:33;;;;;;;16.30;2.38;;;10.60;99.90;;;;;;5035081;28;20522;-73
2022/10/03 05:38:14;;;;;;;14.52;3.08;;;10.60;99.90;;;;;;5034597;28;20026;-74
2022/10/03 05:40:50;;;;;;;15.85;2.83;;;10.60;99.90;;;;;;5034858;28;20029;-71
2022/10/03 05:43:35;;;;;;;12.60;2.25;;;10.60;99.90;;;;;;5033356;28;20041;-72
2022/10/03 05:46:29;;;;;;;11.50;2.38;;;10.60;99.90;;;;;;5036202;28;20021;-72
2022/10/03 05:49:26;;;;;;;10.35;2.42;;;10.60;99.90;;;;;;5039932;28;20042;-73
2022/10/03 05:52:16;;;;;;;16.77;3.00;;;10.60;99.90;;;;;;5039865;28;20058;-70
2022/10/03 05:55:00;;;;;;;11.82;2.70;;;10.50;99.90;;;;;;5035666;28;20034;-71
2022/10/03 05:57:46;;;;;;;15.07;3.17;;;10.50;99.90;;;;;;5035859;28;20041;-72
2022/10/03 06:00:44;;;;;;;9.95;2.95;;;10.50;99.90;;;;;;5035558;28;20025;-72
2022/10/03 06:03:43;;;;;;;13.32;2.72;;;10.50;99.90;;;;;;5036729;28;20032;-72
2022/10/03 06:06:45;;;;;;;8.13;2.00;;;10.50;99.90;;;;;;4987138;28;20050;-71
2022/10/03 06:09:36;;;;;;;14.18;2.80;;;10.60;99.90;;;;;;5032850;28;20029;-70
2022/10/03 06:12:18;;;;;;;12.77;2.28;;;10.50;99.90;;;;;;5039181;28;20037;-73
2022/10/03 06:15:07;;;;;;;13.25;3.05;;;10.60;99.90;;;;;;5047982;28;20034;-71
2022/10/03 06:17:56;;;;;;;16.85;3.10;;;10.70;99.90;;;;;;5035201;28;20025;-71
2022/10/03 06:20:45;;;;;;;13.18;2.85;;;10.70;99.90;;;;;;5034047;28;20492;-73
2022/10/03 06:23:29;;;;;;;18.45;3.03;;;10.80;99.90;;;;;;5033781;28;20043;-73
2022/10/03 06:26:05;;;;;;;13.57;2.92;;;10.80;99.90;;;;;;5033315;28;20386;-73
2022/10/03 06:28:51;;;;;;;14.93;2.80;;;10.90;99.90;;;;;;5034627;28;20022;-69
2022/10/03 06:31:32;;;;;;;13.88;2.60;;;10.90;99.90;;;;;;5032874;28;20041;-74
2022/10/03 06:34:08;;;;;;;10.60;2.05;;;10.90;99.90;;;;;;5033191;28;20603;-73
2022/10/03 06:36:59;;;;;;;8.00;2.15;;;11.00;99.90;;;;;;5032466;28;20695;-75
2022/10/03 06:39:44;;;;;;;13.68;3.13;;;11.00;99.90;;;;;;5033023;28;20471;-74
2022/10/03 06:42:45;;;;;;;15.50;2.97;;;11.00;99.90;;;;;;5032921;28;20026;-71
2022/10/03 06:45:48;;;;;;;15.45;2.15;;;11.00;99.90;;;;;;5038809;28;20140;-72
2022/10/03 06:48:26;;;;;;;10.00;2.58;;;11.10;99.90;;;;;;5033625;28;20053;-71
2022/10/03 06:51:10;;;;;;;15.77;2.70;;;11.10;99.90;;;;;;5033601;28;20062;-72
2022/10/03 06:53:43;;;;;;;9.27;2.22;;;11.10;99.90;;;;;;5046717;28;20108;-71
2022/10/03 06:56:43;;;;;;;5.95;1.65;;;11.20;99.90;;;;;;5032731;28;20030;-73
2022/10/03 06:59:36;;;;;;;20.35;2.88;;;11.20;99.90;;;;;;5037226;28;20037;-72
2022/10/03 07:02:27;;;;;;;10.85;1.88;;;11.30;99.90;;;;;;5038283;28;20018;-73
2022/10/03 07:05:35;;;;;;;10.27;1.88;;;11.30;99.90;;;;;;5032437;28;20041;-73
2022/10/03 07:08:39;;;;;;;14.98;2.47;;;11.30;99.90;;;;;;5030855;28;20026;-73
2022/10/03 07:11:22;;;;;;;13.77;2.58;;;11.40;99.90;;;;;;5033544;28;20025;-71
2022/10/03 07:13:55;;;;;;;9.68;1.80;;;11.40;99.90;;;;;;5033545;28;20053;-73
2022/10/03 07:17:08;;;;;;;11.52;2.42;;;11.50;99.90;;;;;;5031051;28;20034;-70
2022/10/03 07:20:02;;;;;;;12.00;2.65;;;11.60;99.90;;;;;;4999709;28;20471;-73
2022/10/03 07:22:50;;;;;;;13.67;2.70;;;11.60;99.90;;;;;;5032081;28;20902;-71
2022/10/03 07:25:48;;;;;;;8.85;2.28;;;11.70;99.90;;;;;;5032517;28;20033;-74
2022/10/03 07:28:37;;;;;;;10.13;2.03;;;11.70;99.90;;;;;;5032000;28;20464;-74
2022/10/03 07:31:26;;;;;;;14.75;2.53;;;11.80;99.90;;;;;;5034007;28;20052;-73
2022/10/03 07:33:51;;;;;;;12.88;2.45;;;11.90;99.90;;;;;;5033400;28;20026;-73
2022/10/03 07:39:44;;;;;;;7.55;1.90;;;11.90;99.90;;;;;;5022280;28;20048;-72
2022/10/03 07:42:24;;;;;;;13.88;1.83;;;12.00;99.90;;;;;;5032543;28;20049;-71
2022/10/03 07:45:23;;;;;;;15.70;2.10;;;12.00;99.90;;;;;;5032667;28;20021;-73
2022/10/03 07:48:08;;;;;;;12.23;2.55;;;12.00;99.90;;;;;;5031704;28;20072;-75
2022/10/03 07:51:24;;;;;;;12.48;2.10;;;12.10;99.90;;;;;;5032437;28;20545;-72
2022/10/03 07:54:23;;;;;;;6.25;1.90;;;12.00;99.90;;;;;;5013298;28;20198;-73
2022/10/03 07:57:14;;;;;;;5.47;1.35;;;12.30;99.90;;;;;;5029304;28;20113;-74
2022/10/03 07:59:59;;;;;;;12.27;2.40;;;12.50;99.90;;;;;;5032485;28;20034;-72
2022/10/03 08:02:46;;;;;;;6.95;2.08;;;12.80;99.90;;;;;;5032246;28;20116;-72
2022/10/03 08:05:19;;;;;;;18.10;2.45;;;13.10;99.90;;;;;;5031947;28;20034;-73
2022/10/03 08:08:08;;;;;;;12.30;1.98;;;13.30;99.90;;;;;;5038683;28;20060;-72
2022/10/03 08:11:05;;;;;;;12.60;2.25;;;13.40;99.90;;;;;;5031625;28;20069;-74
2022/10/03 08:13:37;;;;;;;7.75;1.90;;;13.50;99.90;;;;;;5033894;28;20033;-77
2022/10/03 08:16:28;;;;;;;6.00;1.98;;;13.50;99.90;;;;;;5029936;28;20045;-72
2022/10/03 08:19:06;;;;;;;9.43;2.40;;;13.50;99.90;;;;;;5032518;28;20037;-70
2022/10/03 08:22:05;;;;;;;8.60;2.22;;;13.60;99.90;;;;;;5032443;28;20103;-74
2022/10/03 08:25:06;;;;;;;8.63;1.77;;;13.70;99.90;;;;;;5031658;28;20057;-73
2022/10/03 08:27:45;;;;;;;11.93;1.67;;;13.80;99.90;;;;;;5032385;28;20057;-71
2022/10/03 08:30:22;;;;;;;7.75;1.45;;;13.90;99.90;;;;;;5033835;28;20485;-73
2022/10/03 08:33:29;;;;;;;9.13;1.63;;;13.90;99.90;;;;;;5032464;28;20053;-71
2022/10/03 08:36:32;;;;;;;9.30;1.60;;;14.00;99.90;;;;;;5031657;28;20029;-74
2022/10/03 08:39:11;;;;;;;14.30;2.10;;;14.00;99.90;;;;;;5031279;28;20030;-73
2022/10/03 08:41:36;;;;;;;18.05;2.00;;;14.10;99.90;;;;;;5032386;28;20765;-76
2022/10/03 08:44:20;;;;;;;18.60;2.42;;;14.20;99.90;;;;;;5037655;28;20021;-74
2022/10/03 08:46:46;;;;;;;13.45;1.67;;;14.30;99.90;;;;;;5030796;28;20053;-76
2022/10/03 08:49:31;;;;;;;16.63;1.73;;;14.40;99.90;;;;;;5037675;28;20029;-71
2022/10/03 08:52:22;;;;;;;7.65;1.50;;;14.40;99.90;;;;;;5031805;28;20034;-74
2022/10/03 08:54:50;;;;;;;6.10;1.42;;;14.50;99.90;;;;;;5031830;28;20025;-74
2022/10/03 08:57:49;;;;;;;8.57;1.60;;;14.50;99.90;;;;;;5031441;28;20026;-73
2022/10/03 09:00:21;;;;;;;6.78;1.77;;;14.60;99.90;;;;;;5029852;28;20025;-72
2022/10/03 09:03:12;;;;;;;13.05;2.20;;;14.70;99.90;;;;;;5032875;28;20030;-73
2022/10/03 09:06:23;;;;;;;10.43;1.27;;;14.80;99.90;;;;;;5032549;28;20026;-71
2022/10/03 09:09:26;;;;;;;6.00;1.40;;;14.90;99.90;;;;;;4997818;28;20073;-72
2022/10/03 09:12:33;;;;;;;8.02;2.00;;;15.00;99.90;;;;;;5030678;28;20056;-72
2022/10/03 09:15:33;;;;;;;9.77;1.92;;;15.10;99.90;;;;;;4979063;28;20179;-74
2022/10/03 09:18:28;;;;;;;7.47;1.80;;;15.10;99.90;;;;;;4978625;28;20054;-73
2022/10/03 09:21:25;;;;;;;10.88;1.98;;;15.20;99.90;;;;;;5026443;28;20069;-77
2022/10/03 09:23:58;;;;;;;13.38;1.85;;;15.30;99.90;;;;;;5031231;28;20116;-70
2022/10/03 09:26:32;;;;;;;9.68;1.58;;;15.30;99.90;;;;;;5032430;28;20539;-75
2022/10/03 09:29:31;;;;;;;7.13;1.85;;;15.40;99.90;;;;;;5030672;28;20029;-73
2022/10/03 09:32:05;;;;;;;12.93;1.88;;;15.50;99.90;;;;;;5032325;28;20041;-71
2022/10/03 09:34:58;;;;;;;9.60;1.85;;;15.50;99.90;;;;;;5031258;28;20030;-73
2022/10/03 09:37:53;;;;;;;8.05;1.90;;;15.60;99.90;;;;;;5032691;28;20097;-75
2022/10/03 09:40:38;;;;;;;3.90;1.60;;;15.70;99.90;;;;;;5032516;28;20033;-71
2022/10/03 09:43:06;;;;;;;12.23;2.00;;;15.70;99.90;;;;;;5034072;28;20025;-74
2022/10/03 09:45:38;;;;;;;4.80;1.40;;;15.80;99.90;;;;;;5034500;28;20022;-72
2022/10/03 09:48:19;;;;;;;6.60;1.13;;;15.90;99.90;;;;;;5035869;28;20057;-74
2022/10/03 09:50:56;;;;;;;6.35;1.52;;;16.00;99.90;;;;;;5033248;28;20568;-74
2022/10/03 09:54:00;;;;;;;12.10;1.60;;;16.00;99.90;;;;;;5035115;28;20456;-73
2022/10/03 09:56:46;;;;;;;6.25;1.48;;;15.90;99.90;;;;;;5034315;28;20030;-78
2022/10/03 09:59:24;;;;;;;1.88;0.85;;;15.90;99.90;;;;;;5034060;28;20671;-73
2022/10/03 10:02:38;;;;;;;6.55;1.50;;;16.00;99.90;;;;;;5047231;28;20052;-73
2022/10/03 10:05:35;;;;;;;6.40;1.10;;;16.10;99.90;;;;;;4987215;28;20065;-74
2022/10/03 10:08:32;;;;;;;12.75;1.58;;;16.20;99.90;;;;;;5032560;28;20041;-71
2022/10/03 10:11:18;;;;;;;9.50;1.50;;;16.20;99.90;;;;;;5036205;28;20038;-73
2022/10/03 10:14:08;;;;;;;6.18;1.25;;;16.40;99.90;;;;;;5034054;28;20029;-74
2022/10/03 10:16:55;;;;;;;5.88;1.33;;;16.60;99.90;;;;;;5034448;28;20061;-72
2022/10/03 10:19:30;;;;;;;6.35;1.58;;;16.60;99.90;;;;;;5036637;28;20036;-74
2022/10/03 10:22:05;;;;;;;10.57;1.75;;;16.50;99.90;;;;;;5048292;28;20085;-75
2022/10/03 10:24:55;;;;;;;6.50;1.40;;;16.40;99.90;;;;;;5036933;28;20052;-75
2022/10/03 10:27:55;;;;;;;8.02;1.45;;;16.50;99.90;;;;;;5034712;28;20474;-71
2022/10/03 10:30:29;;;;;;;14.32;1.58;;;16.60;99.90;;;;;;5036355;28;20056;-74
2022/10/03 10:33:32;;;;;;;5.45;1.13;;;16.70;99.90;;;;;;5035364;28;20065;-72
2022/10/03 10:36:32;;;;;;;6.40;1.48;;;16.90;99.90;;;;;;5033607;28;20033;-74
2022/10/03 10:39:15;;;;;;;8.55;1.33;;;17.10;99.90;;;;;;5034566;28;20057;-75
2022/10/03 10:42:02;;;;;;;2.85;0.90;;;17.20;99.90;;;;;;5033103;28;20080;-71
2022/10/03 10:45:06;;;;;;;7.60;1.55;;;17.30;99.90;;;;;;5040400;28;20383;-75
2022/10/03 10:47:52;;;;;;;7.63;1.67;;;17.40;99.90;;;;;;5033074;28;20053;-75
2022/10/03 10:50:30;;;;;;;6.32;1.20;;;17.50;99.90;;;;;;5036252;28;20024;-74
2022/10/03 10:53:08;;;;;;;3.90;1.17;;;17.70;99.90;;;;;;5033949;28;20057;-76
2022/10/03 10:55:58;;;;;;;3.38;1.08;;;17.70;99.90;;;;;;5033818;28;20037;-75
2022/10/03 10:59:10;;;;;;;7.75;1.40;;;17.70;99.90;;;;;;5031677;28;20131;-75
2022/10/03 11:01:50;;;;;;;5.07;0.50;;;17.70;99.90;;;;;;5024063;28;20065;-74
2022/10/03 11:04:37;;;;;;;4.20;0.70;;;17.80;99.90;;;;;;5033304;28;20018;-73
2022/10/03 11:07:21;;;;;;;4.03;0.95;;;17.90;99.90;;;;;;5034579;28;20036;-72
2022/10/03 11:10:37;;;;;;;3.60;1.25;;;17.80;99.90;;;;;;5033127;28;20029;-71
2022/10/03 11:13:29;;;;;;;9.10;1.52;;;17.60;99.90;;;;;;5034062;28;20490;-76
2022/10/03 11:16:10;;;;;;;2.47;1.05;;;17.60;99.90;;;;;;5034442;28;20025;-76
2022/10/03 11:19:02;;;;;;;4.28;0.93;;;17.60;99.90;;;;;;5033777;28;20052;-77
2022/10/03 11:21:58;;;;;;;6.13;1.00;;;17.80;99.90;;;;;;5033172;28;20025;-78
2022/10/03 11:24:48;;;;;;;7.10;0.95;;;17.90;99.90;;;;;;4987875;28;20106;-75
2022/10/03 11:27:35;;;;;;;1.98;0.93;;;17.80;99.90;;;;;;5048085;28;20588;-72
2022/10/03 11:30:19;;;;;;;15.20;1.27;;;17.60;99.90;;;;;;5033380;28;20034;-74
2022/10/03 11:33:04;;;;;;;4.75;1.00;;;17.80;99.90;;;;;;5033715;28;20053;-75
2022/10/03 11:36:16;;;;;;;5.43;0.75;;;17.90;99.90;;;;;;5032997;28;20026;-73
2022/10/03 11:39:01;;;;;;;7.10;0.93;;;17.90;99.90;;;;;;5019589;28;20041;-73
2022/10/03 11:41:45;;;;;;;9.90;1.23;;;17.70;99.90;;;;;;5045526;28;20061;-74
2022/10/03 11:44:14;;;;;;;4.90;1.13;;;17.60;99.90;;;;;;5028552;28;20044;-71
2022/10/03 11:47:26;;;;;;;5.88;0.80;;;17.60;99.90;;;;;;5033603;28;20025;-76
2022/10/03 11:49:52;;;;;;;3.92;0.98;;;17.60;99.90;;;;;;4980081;28;20034;-75
2022/10/03 11:52:41;;;;;;;3.22;0.88;;;17.50;99.90;;;;;;4980468;28;20596;-74
2022/10/03 11:55:32;;;;;;;3.95;0.85;;;17.40;99.90;;;;;;5015172;28;20404;-76
2022/10/03 11:58:11;;;;;;;2.53;0.68;;;17.30;99.90;;;;;;5032712;28;20044;-75
2022/10/03 12:00:41;;;;;;;5.22;0.85;;;17.40;99.90;;;;;;5037870;28;20049;-74
2022/10/03 12:03:28;;;;;;;5.60;1.10;;;17.40;99.90;;;;;;5031557;28;20064;-74
2022/10/03 12:09:26;;;;;;;;;;;17.70;99.90;;;;;;5013795;28;20364;-74
2022/10/03 12:12:10;;;;;;;8.48;1.10;;;17.90;99.90;;;;;;5026088;28;20364;-73
2022/10/03 12:14:46;;;;;;;5.40;1.30;;;18.20;99.90;;;;;;5043841;28;20485;-72
2022/10/03 12:17:31;;;;;;;4.15;0.85;;;18.20;99.90;;;;;;5032314;28;20280;-74
2022/10/03 12:20:22;;;;;;;4.53;1.08;;;18.50;99.90;;;;;;5031465;28;20033;-78
2022/10/03 12:23:28;;;;;;;6.10;1.17;;;18.90;99.90;;;;;;5038201;28;20641;-77
2022/10/03 12:25:55;;;;;;;;;;;19.10;99.90;;;;;;5030525;28;20038;-77
2022/10/03 12:28:25;;;;;;;5.28;1.23;;;19.20;99.90;;;;;;5032051;28;19942;-75
2022/10/03 12:31:14;;;;;;;7.63;1.20;;;19.30;99.90;;;;;;5013985;28;20037;-76
2022/10/03 12:34:18;;;;;;;7.47;1.27;;;19.00;99.90;;;;;;5032416;28;20108;-71
2022/10/03 12:36:52;;;;;;;4.22;0.93;;;18.70;99.90;;;;;;5003059;28;20045;-72
2022/10/03 12:39:38;;;;;;;6.13;1.38;;;18.60;99.90;;;;;;5031687;28;20497;-73
2022/10/03 12:42:21;;;;;;;6.22;1.10;;;18.70;99.90;;;;;;5032900;28;20465;-76
2022/10/03 12:45:09;;;;;;;6.63;1.30;;;18.90;99.90;;;;;;5031495;28;20041;-75
2022/10/03 12:47:54;;;;;;;8.70;1.42;;;19.00;99.90;;;;;;5036963;28;20288;-74
2022/10/03 12:50:42;;;;;;;6.75;1.17;;;19.20;99.90;;;;;;5010327;28;20027;-74
2022/10/03 12:53:16;;;;;;;4.32;0.98;;;19.00;99.90;;;;;;5010179;28;20509;-72
2022/10/03 12:56:12;;;;;;;6.15;0.75;;;19.20;99.90;;;;;;5010955;28;20037;-73
2022/10/03 12:59:11;;;;;;;3.42;0.95;;;19.00;99.90;;;;;;5011347;28;20034;-73
2022/10/03 13:02:07;;;;;;;5.75;1.13;;;18.70;99.90;;;;;;5012253;28;20493;-75
2022/10/03 13:04:47;;;;;;;6.30;1.10;;;18.40;99.90;;;;;;5001932;28;20041;-72
2022/10/03 13:07:17;;;;;;;3.05;1.30;;;18.30;99.90;;;;;;5010992;28;20112;-74
2022/10/03 13:09:49;;;;;;;5.45;1.10;;;18.40;99.90;;;;;;5016937;28;21082;-72
2022/10/03 13:12:28;;;;;;;6.82;1.20;;;18.50;99.90;;;;;;5012675;28;20046;-75
2022/10/03 13:15:31;;;;;;;5.00;1.23;;;18.50;99.90;;;;;;5012522;28;20039;-75
2022/10/03 13:18:35;;;;;;;4.60;0.88;;;18.40;99.90;;;;;;5016559;28;20085;-73
2022/10/03 13:21:29;;;;;;;5.05;1.10;;;18.30;99.90;;;;;;5015743;28;20036;-71
2022/10/03 13:24:08;;;;;;;5.13;1.13;;;18.10;99.90;;;;;;5015338;28;20089;-75
2022/10/03 13:26:58;;;;;;;4.45;0.82;;;18.10;99.90;;;;;;5015436;28;20034;-74
2022/10/03 13:29:40;;;;;;;9.82;1.20;;;18.00;99.90;;;;;;5015689;28;20027;-75
2022/10/03 13:32:16;;;;;;;6.10;1.30;;;17.90;99.90;;;;;;5016816;28;20532;-77
2022/10/03 13:38:18;;;;;;;8.20;1.05;;;17.70;99.90;;;;;;5015966;28;20064;-76
2022/10/03 13:40:58;;;;;;;8.38;1.13;;;17.60;99.90;;;;;;5017795;28;20056;-76
2022/10/03 13:43:36;;;;;;;7.22;1.02;;;17.50;99.90;;;;;;5014590;28;20030;-76
2022/10/03 13:46:14;;;;;;;8.00;1.30;;;17.40;99.90;;;;;;5014994;28;20088;-76
2022/10/03 13:48:48;;;;;;;7.28;1.45;;;17.40;99.90;;;;;;5031648;28;20049;-71
2022/10/03 13:51:27;;;;;;;5.07;1.55;;;17.30;99.90;;;;;;5034087;28;20037;-76
2022/10/03 13:54:00;;;;;;;6.85;1.27;;;17.60;99.90;;;;;;5051006;28;20025;-77
2022/10/03 13:56:48;;;;;;;3.90;1.05;;;17.70;99.90;;;;;;5034447;28;20089;-77
2022/10/03 13:59:50;;;;;;;11.68;1.60;;;18.10;99.90;;;;;;5035007;28;20035;-75
2022/10/03 14:02:44;;;;;;;6.63;1.05;;;18.70;99.90;;;;;;5041462;28;20048;-75
2022/10/03 14:05:33;;;;;;;9.18;1.40;;;19.10;99.90;;;;;;5026740;28;20093;-75
2022/10/03 14:08:25;;;;;;;6.97;1.20;;;18.80;99.90;;;;;;5037047;28;20033;-73
2022/10/03 14:11:11;;;;;;;2.88;1.20;;;18.60;99.90;;;;;;5035928;28;20041;-76
2022/10/03 14:13:55;;;;;;;5.90;1.13;;;18.40;99.90;;;;;;5035656;28;20085;-76
2022/10/03 14:16:35;;;;;;;5.25;1.27;;;18.30;99.90;;;;;;5040702;28;20079;-79
2022/10/03 14:19:15;;;;;;;8.90;1.15;;;18.10;99.90;;;;;;5034956;28;20033;-75
2022/10/03 14:22:08;;;;;;;7.85;1.20;;;18.10;99.90;;;;;;5038296;28;20041;-76
2022/10/03 14:24:48;;;;;;;8.98;1.00;;;17.90;99.90;;;;;;5036259;28;20060;-74
2022/10/03 14:27:32;;;;;;;3.83;0.90;;;17.70;99.90;;;;;;5039863;28;20030;-74
2022/10/03 14:30:12;;;;;;;5.60;1.67;;;17.60;99.90;;;;;;5033884;28;20030;-72
2022/10/03 14:32:58;;;;;;;9.27;1.77;;;17.40;99.90;;;;;;5033605;28;20049;-74